EGNJ METAR and TAF | Updated Today

EGNJ METAR

Humberside Airport

Observation time: 29 min. ago

EGNJ 251850Z AUTO 27015G26KT 9999 NCD 17/08 Q1011

Need help? Read our tutorial on how to read METARs or read the parsed version below.

Humberside Airport (EGNJ) METAR

  • Weather conditions on Wed, 25 May 2022 18:50:00 +0000 (29 min. ago):
  • Present conditions: Dry
  • Clouds: Nil cloud detected
  • Visibility: Greater than 10 km
  • Wind: 270 degrees at 15 knots
  • Temperature: 17 celsius
  • Dew point: 8 celsius
  • Pressure: 1011 millibars
  • Remarks: None


Useful to know...

EGNJ TAF

Humberside Airport

TAF EGNJ 251702Z 2518/2603 27017KT 9999 FEW040 BECMG 2518/2521 24007KT
Observation time: 2:17 hr. ago
Need help? Read our tutorial on how to read TAFs or read the parsed version below.

Parsed version of TAF for Humberside Airport (EGNJ)

  • From 25 May at 18:00 UTC, to day 26 of the month at 03:00 UTC
  • Clouds: A few at 1219 meters
  • Visibility: Greater than 10 km
  • Wind: 270 degrees at 17
  • Expected to arise soon, from 25 May at 18:00 UTC, to day 25 of the month at 21:00 UTC
  • Wind: 240 degrees at 7